createdAt,value
2022-11-30T01:20:38.721Z,-0.35
2022-11-30T01:24:12.876Z,-0.59
2022-11-30T01:28:01.161Z,-0.56
2022-11-30T01:31:54.156Z,-0.57
2022-11-30T01:35:18.704Z,-0.65
2022-11-30T01:42:19.424Z,-0.61
2022-11-30T01:49:26.782Z,-0.54
2022-11-30T01:53:09.980Z,-0.63
2022-11-30T01:56:38.458Z,-0.62
2022-11-30T02:00:37.165Z,-0.60
2022-11-30T02:04:21.207Z,-0.59
2022-11-30T02:08:14.133Z,-0.59
2022-11-30T02:11:51.426Z,-0.59
2022-11-30T02:15:31.409Z,-0.60
2022-11-30T02:19:19.897Z,-0.60
2022-11-30T02:27:25.937Z,-0.68
2022-11-30T02:31:06.597Z,-0.70
2022-11-30T02:49:41.055Z,-0.69
2022-11-30T02:53:13.135Z,-0.70
2022-11-30T02:56:43.092Z,-0.65
2022-11-30T03:00:05.800Z,-0.63
2022-11-30T03:03:40.829Z,-0.61
2022-11-30T03:10:42.720Z,-0.57
2022-11-30T03:14:21.273Z,-0.63
2022-11-30T03:18:44.893Z,-0.60
2022-11-30T03:28:55.846Z,-0.68
2022-11-30T03:32:29.670Z,-0.74
2022-11-30T03:36:06.659Z,-0.71
2022-11-30T03:39:36.695Z,-0.71
2022-11-30T03:43:01.221Z,-0.72
2022-11-30T03:46:26.889Z,-0.69
2022-11-30T03:50:12.447Z,-0.73
2022-11-30T03:53:47.881Z,-0.75
2022-11-30T03:57:08.198Z,-0.78
2022-11-30T04:00:34.617Z,-0.81
2022-11-30T04:03:56.036Z,-0.86
2022-11-30T04:07:22.914Z,-0.97
2022-11-30T04:10:48.181Z,-1.02
2022-11-30T04:14:06.837Z,-1.10
2022-11-30T04:17:33.401Z,-1.17
2022-11-30T04:21:07.824Z,-1.20
2022-11-30T04:24:24.894Z,-1.20
2022-11-30T04:27:40.709Z,-1.22
2022-11-30T04:31:22.707Z,-1.25
2022-11-30T04:35:03.341Z,-1.22
2022-11-30T04:38:27.990Z,-1.19
2022-11-30T04:45:15.296Z,-1.05
2022-11-30T04:49:03.394Z,-1.06
2022-11-30T04:52:35.748Z,-1.03
2022-11-30T04:59:50.815Z,-1.02
2022-11-30T05:03:20.776Z,-1.13
2022-11-30T05:06:50.546Z,-1.12
2022-11-30T05:10:29.098Z,-1.18
2022-11-30T05:13:51.280Z,-1.19
2022-11-30T05:17:20.417Z,-1.22
2022-11-30T05:20:55.613Z,-1.20
2022-11-30T05:24:48.171Z,-1.16
2022-11-30T05:28:18.993Z,-1.15
2022-11-30T05:31:56.940Z,-1.13
2022-11-30T05:35:30.522Z,-1.06
2022-11-30T05:38:42.327Z,-1.00
2022-11-30T05:41:56.029Z,-0.96
2022-11-30T05:45:23.557Z,-0.95
2022-11-30T05:48:50.153Z,-0.89
2022-11-30T05:52:19.501Z,-0.81
2022-11-30T05:59:17.053Z,-0.66
2022-11-30T06:05:58.671Z,-0.66
2022-11-30T06:09:21.830Z,-0.58
2022-11-30T06:24:25.974Z,-0.32
2022-11-30T06:27:52.644Z,-0.29
2022-11-30T06:34:49.423Z,-0.17
2022-11-30T06:38:39.089Z,-0.11
2022-11-30T07:37:12.594Z,0.67
2022-11-30T07:40:56.998Z,0.71
2022-11-30T07:44:35.242Z,0.77
2022-11-30T07:48:50.760Z,0.86
2022-11-30T08:04:05.887Z,1.01
2022-11-30T08:07:56.524Z,1.09
2022-11-30T08:11:28.914Z,1.17
2022-11-30T08:18:58.915Z,1.29
2022-11-30T08:22:33.044Z,1.38
2022-11-30T08:25:54.945Z,1.48
2022-11-30T08:35:03.331Z,1.81
2022-11-30T08:55:33.303Z,2.10
2022-11-30T08:58:58.583Z,2.17
2022-11-30T09:19:40.740Z,2.74
2022-11-30T09:23:15.274Z,2.78
2022-11-30T09:30:50.010Z,2.96
2022-11-30T09:34:07.667Z,3.00
2022-11-30T09:40:51.461Z,3.06
2022-11-30T09:48:27.408Z,3.18
2022-11-30T09:52:08.081Z,3.24
2022-11-30T09:55:36.003Z,3.32
2022-11-30T09:59:06.641Z,3.35
2022-11-30T10:06:14.641Z,3.39
2022-11-30T10:14:03.924Z,3.51
2022-11-30T10:17:40.430Z,3.58
2022-11-30T10:21:42.003Z,3.65
2022-11-30T10:26:00.001Z,3.63
2022-11-30T10:29:37.477Z,3.56
2022-11-30T10:33:05.976Z,3.66
2022-11-30T10:36:58.652Z,3.73
2022-11-30T10:40:24.078Z,3.70
2022-11-30T10:43:56.187Z,3.73
2022-11-30T10:47:26.475Z,3.77
2022-11-30T10:51:03.327Z,3.86
2022-11-30T10:54:40.796Z,3.95
2022-11-30T10:58:10.715Z,4.02
2022-11-30T11:01:48.921Z,4.05
2022-11-30T11:05:09.063Z,4.09
2022-11-30T11:09:08.301Z,4.03
2022-11-30T11:13:02.567Z,4.03
2022-11-30T11:31:09.002Z,4.01
2022-11-30T11:34:53.422Z,3.99
2022-11-30T11:38:21.990Z,4.04
2022-11-30T11:42:22.687Z,4.11
2022-11-30T11:46:26.833Z,4.16
2022-11-30T11:50:49.863Z,4.12
2022-11-30T11:54:07.803Z,4.07
2022-11-30T11:58:09.242Z,3.97
2022-11-30T12:02:26.122Z,3.76
2022-11-30T12:06:13.029Z,3.67
2022-11-30T12:10:35.642Z,3.69
2022-11-30T12:14:27.748Z,3.72
2022-11-30T12:26:41.184Z,3.69
2022-11-30T12:34:42.497Z,3.66
2022-11-30T12:38:16.961Z,3.56
2022-11-30T12:42:20.987Z,3.55
2022-11-30T13:05:01.397Z,3.43
2022-11-30T13:24:00.425Z,3.04
2022-11-30T13:49:42.364Z,2.81
2022-11-30T13:57:18.706Z,2.82
2022-11-30T14:01:01.405Z,2.83
2022-11-30T14:04:59.945Z,2.84
2022-11-30T14:45:26.015Z,2.75
2022-11-30T14:56:58.251Z,2.40
2022-11-30T15:00:33.608Z,2.38
2022-11-30T15:03:54.511Z,2.40
2022-11-30T15:07:21.250Z,2.41
2022-11-30T15:10:54.760Z,2.38
2022-11-30T15:14:40.661Z,2.34
2022-11-30T15:18:15.325Z,2.34
2022-11-30T15:21:53.048Z,2.35
2022-11-30T15:26:01.562Z,2.35
2022-11-30T15:29:36.979Z,2.34
2022-11-30T15:33:26.279Z,2.33
2022-11-30T15:37:13.071Z,2.31
2022-11-30T15:41:03.001Z,2.35
2022-11-30T15:44:20.276Z,2.36
2022-11-30T15:48:14.179Z,2.36
2022-11-30T15:52:01.730Z,2.37
2022-11-30T15:59:50.235Z,2.36
2022-11-30T16:07:38.617Z,2.41
2022-11-30T16:14:47.339Z,2.44
2022-11-30T16:22:24.340Z,2.48
2022-11-30T16:29:58.406Z,2.37
2022-11-30T16:33:35.013Z,2.25
2022-11-30T16:37:12.083Z,2.17
2022-11-30T16:58:11.879Z,2.24
2022-11-30T17:01:52.361Z,2.18
2022-11-30T17:05:21.307Z,2.12
2022-11-30T17:12:08.081Z,2.15
2022-11-30T17:18:59.445Z,2.15
2022-11-30T17:22:40.844Z,2.10
2022-11-30T17:26:28.701Z,2.07
2022-11-30T17:29:45.772Z,2.06
2022-11-30T17:33:21.639Z,2.03
2022-11-30T17:36:39.597Z,1.99
2022-11-30T17:40:02.478Z,1.96
2022-11-30T17:49:57.172Z,1.96
2022-11-30T17:57:06.774Z,1.95
2022-11-30T18:00:18.504Z,1.87
2022-11-30T18:07:17.464Z,1.87
2022-11-30T18:14:30.077Z,1.87
2022-11-30T18:18:11.586Z,1.86
2022-11-30T19:05:35.880Z,1.50
2022-11-30T19:31:15.140Z,1.61
2022-11-30T19:34:53.739Z,1.56
2022-11-30T19:43:01.179Z,1.61
2022-11-30T19:50:06.849Z,1.58
2022-11-30T19:53:24.418Z,1.51
2022-11-30T20:11:27.584Z,1.61
2022-11-30T20:14:40.195Z,1.55
2022-11-30T20:22:31.304Z,1.63
2022-11-30T20:29:42.724Z,1.67
2022-11-30T20:33:07.578Z,1.75
2022-11-30T20:36:31.915Z,1.81
2022-11-30T20:39:59.578Z,1.87
2022-11-30T20:46:20.956Z,1.92
2022-11-30T20:49:33.443Z,1.92
2022-11-30T20:53:11.953Z,1.96
2022-11-30T20:57:00.500Z,1.99
2022-11-30T21:00:21.463Z,2.00
2022-11-30T21:03:41.838Z,2.00
2022-11-30T21:07:16.061Z,2.00
2022-11-30T21:10:45.146Z,2.02
2022-11-30T21:14:24.381Z,2.00
2022-11-30T21:30:22.460Z,1.78
2022-11-30T21:38:11.567Z,1.65
2022-11-30T21:42:04.025Z,1.54
2022-11-30T21:45:45.388Z,1.52
2022-11-30T21:49:28.341Z,1.54
2022-11-30T22:00:35.774Z,1.65
2022-11-30T22:07:57.728Z,1.66
2022-11-30T22:11:57.478Z,1.62
2022-11-30T22:15:35.003Z,1.64
2022-11-30T22:20:01.379Z,1.62
2022-11-30T22:23:55.727Z,1.65
2022-11-30T22:30:43.542Z,1.68
2022-11-30T22:43:57.061Z,1.72
2022-11-30T22:47:53.383Z,1.74
2022-11-30T23:37:48.921Z,1.89
2022-11-30T23:56:00.141Z,1.96
